sensor_id;sensor_type;location;lat;lon;timestamp;P1;durP1;ratioP1;P2;durP2;ratioP2
30888;SDS011;51092;50.874;7.024;2023-03-22T00:00:35;10.57;;;5.93;;
30888;SDS011;51092;50.874;7.024;2023-03-22T00:01:37;9.90;;;7.05;;
30888;SDS011;51092;50.874;7.024;2023-03-22T00:02:41;12.32;;;6.53;;
30888;SDS011;51092;50.874;7.024;2023-03-22T00:03:42;14.75;;;6.32;;
30888;SDS011;51092;50.874;7.024;2023-03-22T00:04:45;13.80;;;6.80;;
30888;SDS011;51092;50.874;7.024;2023-03-22T00:05:46;8.23;;;6.15;;
30888;SDS011;51092;50.874;7.024;2023-03-22T00:06:49;11.52;;;6.90;;
30888;SDS011;51092;50.874;7.024;2023-03-22T00:07:50;9.85;;;6.53;;
30888;SDS011;51092;50.874;7.024;2023-03-22T00:08:57;11.68;;;7.13;;
30888;SDS011;51092;50.874;7.024;2023-03-22T00:09:59;12.05;;;7.53;;
30888;SDS011;51092;50.874;7.024;2023-03-22T00:11:02;9.07;;;6.43;;
30888;SDS011;51092;50.874;7.024;2023-03-22T00:12:04;13.57;;;7.75;;
30888;SDS011;51092;50.874;7.024;2023-03-22T00:13:08;12.23;;;7.55;;
30888;SDS011;51092;50.874;7.024;2023-03-22T00:14:11;11.85;;;7.47;;
30888;SDS011;51092;50.874;7.024;2023-03-22T00:15:15;8.07;;;6.38;;
30888;SDS011;51092;50.874;7.024;2023-03-22T00:16:16;9.95;;;6.70;;
30888;SDS011;51092;50.874;7.024;2023-03-22T00:17:18;11.75;;;7.35;;
30888;SDS011;51092;50.874;7.024;2023-03-22T00:18:18;12.15;;;7.47;;
30888;SDS011;51092;50.874;7.024;2023-03-22T00:19:20;11.95;;;7.75;;
30888;SDS011;51092;50.874;7.024;2023-03-22T00:20:22;12.95;;;7.78;;
30888;SDS011;51092;50.874;7.024;2023-03-22T00:21:24;11.60;;;7.60;;
30888;SDS011;51092;50.874;7.024;2023-03-22T00:22:26;15.70;;;7.70;;
30888;SDS011;51092;50.874;7.024;2023-03-22T00:23:28;11.27;;;8.25;;
30888;SDS011;51092;50.874;7.024;2023-03-22T00:24:30;11.13;;;7.88;;
30888;SDS011;51092;50.874;7.024;2023-03-22T00:25:32;11.68;;;6.80;;
30888;SDS011;51092;50.874;7.024;2023-03-22T00:26:34;8.75;;;7.47;;
30888;SDS011;51092;50.874;7.024;2023-03-22T00:27:36;10.55;;;7.90;;
30888;SDS011;51092;50.874;7.024;2023-03-22T00:28:38;11.65;;;8.40;;
30888;SDS011;51092;50.874;7.024;2023-03-22T00:29:40;11.15;;;7.90;;
30888;SDS011;51092;50.874;7.024;2023-03-22T00:30:47;10.95;;;7.45;;
30888;SDS011;51092;50.874;7.024;2023-03-22T00:31:52;12.07;;;7.72;;
30888;SDS011;51092;50.874;7.024;2023-03-22T00:32:55;16.30;;;7.95;;
30888;SDS011;51092;50.874;7.024;2023-03-22T00:33:58;9.77;;;7.93;;
30888;SDS011;51092;50.874;7.024;2023-03-22T00:34:59;7.97;;;7.15;;
30888;SDS011;51092;50.874;7.024;2023-03-22T00:36:03;9.95;;;8.43;;
30888;SDS011;51092;50.874;7.024;2023-03-22T00:37:06;12.93;;;8.88;;
30888;SDS011;51092;50.874;7.024;2023-03-22T00:38:08;8.73;;;6.78;;
30888;SDS011;51092;50.874;7.024;2023-03-22T00:39:13;11.35;;;7.38;;
30888;SDS011;51092;50.874;7.024;2023-03-22T00:40:16;12.13;;;7.63;;
30888;SDS011;51092;50.874;7.024;2023-03-22T00:41:18;11.43;;;7.30;;
30888;SDS011;51092;50.874;7.024;2023-03-22T00:42:22;11.98;;;8.13;;
30888;SDS011;51092;50.874;7.024;2023-03-22T00:43:24;13.98;;;8.02;;
30888;SDS011;51092;50.874;7.024;2023-03-22T00:44:26;10.35;;;7.88;;
30888;SDS011;51092;50.874;7.024;2023-03-22T00:45:28;9.65;;;7.25;;
30888;SDS011;51092;50.874;7.024;2023-03-22T00:46:31;13.63;;;8.20;;
30888;SDS011;51092;50.874;7.024;2023-03-22T00:47:33;13.30;;;8.45;;
30888;SDS011;51092;50.874;7.024;2023-03-22T00:48:36;11.35;;;7.68;;
30888;SDS011;51092;50.874;7.024;2023-03-22T00:49:37;10.55;;;8.05;;
30888;SDS011;51092;50.874;7.024;2023-03-22T00:50:40;12.15;;;7.78;;
30888;SDS011;51092;50.874;7.024;2023-03-22T00:51:41;10.55;;;7.82;;
30888;SDS011;51092;50.874;7.024;2023-03-22T00:52:44;11.52;;;7.50;;
30888;SDS011;51092;50.874;7.024;2023-03-22T00:53:45;11.23;;;8.02;;
30888;SDS011;51092;50.874;7.024;2023-03-22T00:54:50;13.75;;;8.68;;
30888;SDS011;51092;50.874;7.024;2023-03-22T00:55:52;8.80;;;7.50;;
30888;SDS011;51092;50.874;7.024;2023-03-22T00:56:54;17.02;;;9.55;;
30888;SDS011;51092;50.874;7.024;2023-03-22T00:57:56;12.60;;;8.60;;
30888;SDS011;51092;50.874;7.024;2023-03-22T00:58:58;9.77;;;7.88;;
30888;SDS011;51092;50.874;7.024;2023-03-22T01:00:00;14.80;;;9.07;;
30888;SDS011;51092;50.874;7.024;2023-03-22T01:01:10;12.25;;;8.05;;
30888;SDS011;51092;50.874;7.024;2023-03-22T01:02:14;11.45;;;7.97;;
30888;SDS011;51092;50.874;7.024;2023-03-22T01:03:17;11.02;;;8.68;;
30888;SDS011;51092;50.874;7.024;2023-03-22T01:04:18;14.15;;;9.07;;
30888;SDS011;51092;50.874;7.024;2023-03-22T01:05:25;14.38;;;7.95;;
30888;SDS011;51092;50.874;7.024;2023-03-22T01:06:28;13.63;;;8.40;;
30888;SDS011;51092;50.874;7.024;2023-03-22T01:07:30;10.13;;;8.18;;
30888;SDS011;51092;50.874;7.024;2023-03-22T01:08:32;13.63;;;8.05;;
30888;SDS011;51092;50.874;7.024;2023-03-22T01:09:38;11.27;;;7.55;;
30888;SDS011;51092;50.874;7.024;2023-03-22T01:10:40;10.40;;;7.75;;
30888;SDS011;51092;50.874;7.024;2023-03-22T01:11:43;11.38;;;8.63;;
30888;SDS011;51092;50.874;7.024;2023-03-22T01:12:44;12.52;;;6.93;;
30888;SDS011;51092;50.874;7.024;2023-03-22T01:13:47;8.77;;;7.65;;
30888;SDS011;51092;50.874;7.024;2023-03-22T01:14:48;14.13;;;7.50;;
30888;SDS011;51092;50.874;7.024;2023-03-22T01:15:51;9.80;;;7.85;;
30888;SDS011;51092;50.874;7.024;2023-03-22T01:16:52;11.23;;;8.45;;
30888;SDS011;51092;50.874;7.024;2023-03-22T01:17:58;12.95;;;9.05;;
30888;SDS011;51092;50.874;7.024;2023-03-22T01:19:00;10.95;;;8.32;;
30888;SDS011;51092;50.874;7.024;2023-03-22T01:20:03;15.70;;;9.35;;
30888;SDS011;51092;50.874;7.024;2023-03-22T01:21:07;11.60;;;8.10;;
30888;SDS011;51092;50.874;7.024;2023-03-22T01:22:10;9.55;;;8.00;;
30888;SDS011;51092;50.874;7.024;2023-03-22T01:23:11;13.90;;;9.60;;
30888;SDS011;51092;50.874;7.024;2023-03-22T01:24:14;9.63;;;7.70;;
30888;SDS011;51092;50.874;7.024;2023-03-22T01:25:16;12.02;;;8.63;;
30888;SDS011;51092;50.874;7.024;2023-03-22T01:26:19;10.68;;;8.65;;
30888;SDS011;51092;50.874;7.024;2023-03-22T01:27:21;12.30;;;8.95;;
30888;SDS011;51092;50.874;7.024;2023-03-22T01:28:24;12.02;;;8.63;;
30888;SDS011;51092;50.874;7.024;2023-03-22T01:29:25;10.25;;;8.38;;
30888;SDS011;51092;50.874;7.024;2023-03-22T01:30:28;10.15;;;8.57;;
30888;SDS011;51092;50.874;7.024;2023-03-22T01:31:29;13.45;;;9.18;;
30888;SDS011;51092;50.874;7.024;2023-03-22T01:32:32;11.88;;;8.55;;
30888;SDS011;51092;50.874;7.024;2023-03-22T01:33:35;10.25;;;7.53;;
30888;SDS011;51092;50.874;7.024;2023-03-22T01:34:37;10.88;;;8.00;;
30888;SDS011;51092;50.874;7.024;2023-03-22T01:35:38;14.35;;;9.20;;
30888;SDS011;51092;50.874;7.024;2023-03-22T01:36:41;13.63;;;7.93;;
30888;SDS011;51092;50.874;7.024;2023-03-22T01:37:42;12.43;;;8.07;;
30888;SDS011;51092;50.874;7.024;2023-03-22T01:38:45;14.00;;;8.70;;
30888;SDS011;51092;50.874;7.024;2023-03-22T01:39:46;10.13;;;8.10;;
30888;SDS011;51092;50.874;7.024;2023-03-22T01:40:49;11.98;;;8.48;;
30888;SDS011;51092;50.874;7.024;2023-03-22T01:41:50;14.70;;;8.40;;
30888;SDS011;51092;50.874;7.024;2023-03-22T01:42:53;16.38;;;9.20;;
30888;SDS011;51092;50.874;7.024;2023-03-22T01:44:05;12.88;;;8.75;;
30888;SDS011;51092;50.874;7.024;2023-03-22T01:45:16;11.50;;;8.63;;
30888;SDS011;51092;50.874;7.024;2023-03-22T01:46:32;11.30;;;8.85;;
30888;SDS011;51092;50.874;7.024;2023-03-22T01:47:35;9.45;;;8.05;;
30888;SDS011;51092;50.874;7.024;2023-03-22T01:48:38;11.15;;;9.25;;
30888;SDS011;51092;50.874;7.024;2023-03-22T01:49:45;12.43;;;8.10;;
30888;SDS011;51092;50.874;7.024;2023-03-22T01:50:48;11.30;;;8.38;;
30888;SDS011;51092;50.874;7.024;2023-03-22T01:51:58;13.82;;;9.25;;
30888;SDS011;51092;50.874;7.024;2023-03-22T01:53:03;12.77;;;8.27;;
30888;SDS011;51092;50.874;7.024;2023-03-22T01:54:09;10.68;;;7.95;;
30888;SDS011;51092;50.874;7.024;2023-03-22T01:55:16;12.20;;;8.32;;
30888;SDS011;51092;50.874;7.024;2023-03-22T01:56:24;14.30;;;9.13;;
30888;SDS011;51092;50.874;7.024;2023-03-22T01:57:28;12.88;;;8.35;;
30888;SDS011;51092;50.874;7.024;2023-03-22T01:58:33;14.02;;;9.60;;
30888;SDS011;51092;50.874;7.024;2023-03-22T01:59:38;14.23;;;9.35;;
30888;SDS011;51092;50.874;7.024;2023-03-22T02:00:40;11.23;;;8.88;;
30888;SDS011;51092;50.874;7.024;2023-03-22T02:01:43;12.20;;;9.25;;
30888;SDS011;51092;50.874;7.024;2023-03-22T02:02:47;14.35;;;9.35;;
30888;SDS011;51092;50.874;7.024;2023-03-22T02:03:54;17.92;;;10.68;;
30888;SDS011;51092;50.874;7.024;2023-03-22T02:04:58;9.52;;;8.02;;
30888;SDS011;51092;50.874;7.024;2023-03-22T02:06:03;12.18;;;8.75;;
30888;SDS011;51092;50.874;7.024;2023-03-22T02:07:06;15.52;;;9.70;;
30888;SDS011;51092;50.874;7.024;2023-03-22T02:08:15;13.90;;;9.30;;
30888;SDS011;51092;50.874;7.024;2023-03-22T02:09:17;16.30;;;9.95;;
30888;SDS011;51092;50.874;7.024;2023-03-22T02:10:22;11.85;;;8.65;;
30888;SDS011;51092;50.874;7.024;2023-03-22T02:11:27;14.18;;;8.48;;
30888;SDS011;51092;50.874;7.024;2023-03-22T02:12:33;9.50;;;7.65;;
30888;SDS011;51092;50.874;7.024;2023-03-22T02:13:53;11.32;;;8.70;;
30888;SDS011;51092;50.874;7.024;2023-03-22T02:15:09;13.80;;;8.95;;
30888;SDS011;51092;50.874;7.024;2023-03-22T02:16:21;11.65;;;8.65;;
30888;SDS011;51092;50.874;7.024;2023-03-22T02:17:32;15.05;;;8.55;;
30888;SDS011;51092;50.874;7.024;2023-03-22T02:18:45;14.57;;;8.93;;
30888;SDS011;51092;50.874;7.024;2023-03-22T02:21:35;12.73;;;7.70;;
30888;SDS011;51092;50.874;7.024;2023-03-22T02:24:46;9.25;;;7.95;;
30888;SDS011;51092;50.874;7.024;2023-03-22T02:29:27;13.57;;;7.35;;
30888;SDS011;51092;50.874;7.024;2023-03-22T02:30:44;9.73;;;8.18;;
30888;SDS011;51092;50.874;7.024;2023-03-22T02:33:47;12.13;;;8.70;;
30888;SDS011;51092;50.874;7.024;2023-03-22T02:35:19;13.82;;;9.05;;
30888;SDS011;51092;50.874;7.024;2023-03-22T02:38:26;17.13;;;8.52;;
30888;SDS011;51092;50.874;7.024;2023-03-22T02:39:58;18.13;;;9.00;;
30888;SDS011;51092;50.874;7.024;2023-03-22T02:41:10;13.35;;;9.02;;
30888;SDS011;51092;50.874;7.024;2023-03-22T02:42:21;11.10;;;8.50;;
30888;SDS011;51092;50.874;7.024;2023-03-22T02:43:31;12.30;;;9.50;;
30888;SDS011;51092;50.874;7.024;2023-03-22T02:44:39;14.05;;;10.25;;
30888;SDS011;51092;50.874;7.024;2023-03-22T02:45:44;16.90;;;9.48;;
30888;SDS011;51092;50.874;7.024;2023-03-22T02:46:54;16.83;;;9.02;;
30888;SDS011;51092;50.874;7.024;2023-03-22T02:48:04;12.95;;;9.25;;
30888;SDS011;51092;50.874;7.024;2023-03-22T02:49:11;11.60;;;8.95;;
30888;SDS011;51092;50.874;7.024;2023-03-22T02:50:19;14.13;;;8.88;;
30888;SDS011;51092;50.874;7.024;2023-03-22T02:51:25;13.30;;;8.68;;
30888;SDS011;51092;50.874;7.024;2023-03-22T02:52:36;12.23;;;8.52;;
30888;SDS011;51092;50.874;7.024;2023-03-22T02:53:41;13.02;;;9.25;;
30888;SDS011;51092;50.874;7.024;2023-03-22T02:54:49;12.40;;;8.75;;
30888;SDS011;51092;50.874;7.024;2023-03-22T02:55:59;12.60;;;8.70;;
30888;SDS011;51092;50.874;7.024;2023-03-22T02:57:04;13.05;;;9.10;;
30888;SDS011;51092;50.874;7.024;2023-03-22T02:58:10;11.20;;;8.48;;
30888;SDS011;51092;50.874;7.024;2023-03-22T02:59:16;12.73;;;9.57;;
30888;SDS011;51092;50.874;7.024;2023-03-22T03:00:21;15.60;;;8.40;;
30888;SDS011;51092;50.874;7.024;2023-03-22T03:01:26;11.88;;;9.30;;
30888;SDS011;51092;50.874;7.024;2023-03-22T03:02:30;16.75;;;9.15;;
30888;SDS011;51092;50.874;7.024;2023-03-22T03:03:33;14.18;;;9.75;;
30888;SDS011;51092;50.874;7.024;2023-03-22T03:04:38;13.38;;;9.82;;
30888;SDS011;51092;50.874;7.024;2023-03-22T03:05:47;13.57;;;9.35;;
30888;SDS011;51092;50.874;7.024;2023-03-22T03:06:53;15.02;;;10.15;;
30888;SDS011;51092;50.874;7.024;2023-03-22T03:08:00;12.90;;;10.05;;
30888;SDS011;51092;50.874;7.024;2023-03-22T03:09:03;18.63;;;10.10;;
30888;SDS011;51092;50.874;7.024;2023-03-22T03:10:10;18.95;;;10.20;;
30888;SDS011;51092;50.874;7.024;2023-03-22T03:11:13;12.85;;;9.02;;
30888;SDS011;51092;50.874;7.024;2023-03-22T03:12:16;14.27;;;8.82;;
30888;SDS011;51092;50.874;7.024;2023-03-22T03:13:20;19.33;;;10.18;;
30888;SDS011;51092;50.874;7.024;2023-03-22T03:14:24;11.77;;;8.77;;
30888;SDS011;51092;50.874;7.024;2023-03-22T03:15:26;13.55;;;9.82;;
30888;SDS011;51092;50.874;7.024;2023-03-22T03:16:29;13.18;;;9.23;;
30888;SDS011;51092;50.874;7.024;2023-03-22T03:17:37;13.68;;;9.93;;
30888;SDS011;51092;50.874;7.024;2023-03-22T03:18:50;17.73;;;10.27;;
30888;SDS011;51092;50.874;7.024;2023-03-22T03:20:01;16.95;;;10.10;;
30888;SDS011;51092;50.874;7.024;2023-03-22T03:21:15;12.73;;;9.65;;
30888;SDS011;51092;50.874;7.024;2023-03-22T03:22:34;13.02;;;9.98;;
30888;SDS011;51092;50.874;7.024;2023-03-22T03:23:46;15.02;;;9.70;;
30888;SDS011;51092;50.874;7.024;2023-03-22T03:24:56;14.77;;;10.40;;
30888;SDS011;51092;50.874;7.024;2023-03-22T03:26:07;13.38;;;9.55;;
30888;SDS011;51092;50.874;7.024;2023-03-22T03:27:13;15.40;;;10.13;;
30888;SDS011;51092;50.874;7.024;2023-03-22T03:28:22;12.77;;;9.65;;
30888;SDS011;51092;50.874;7.024;2023-03-22T03:29:32;21.33;;;10.13;;
30888;SDS011;51092;50.874;7.024;2023-03-22T03:30:41;14.73;;;10.00;;
30888;SDS011;51092;50.874;7.024;2023-03-22T03:31:49;13.98;;;8.98;;
30888;SDS011;51092;50.874;7.024;2023-03-22T03:32:58;16.70;;;9.95;;
30888;SDS011;51092;50.874;7.024;2023-03-22T03:34:12;18.45;;;10.38;;
30888;SDS011;51092;50.874;7.024;2023-03-22T03:35:20;15.77;;;9.77;;
30888;SDS011;51092;50.874;7.024;2023-03-22T03:36:23;15.77;;;9.57;;
30888;SDS011;51092;50.874;7.024;2023-03-22T03:37:27;14.80;;;9.95;;
30888;SDS011;51092;50.874;7.024;2023-03-22T03:38:35;14.70;;;9.95;;
30888;SDS011;51092;50.874;7.024;2023-03-22T03:39:40;14.30;;;9.80;;
30888;SDS011;51092;50.874;7.024;2023-03-22T03:40:46;12.43;;;9.07;;
30888;SDS011;51092;50.874;7.024;2023-03-22T03:41:51;14.05;;;8.98;;
30888;SDS011;51092;50.874;7.024;2023-03-22T03:42:55;13.18;;;9.45;;
30888;SDS011;51092;50.874;7.024;2023-03-22T03:44:01;14.10;;;9.20;;
30888;SDS011;51092;50.874;7.024;2023-03-22T03:45:05;13.00;;;10.00;;
30888;SDS011;51092;50.874;7.024;2023-03-22T03:46:07;17.52;;;10.25;;
30888;SDS011;51092;50.874;7.024;2023-03-22T03:47:10;14.70;;;10.75;;
30888;SDS011;51092;50.874;7.024;2023-03-22T03:48:12;16.40;;;9.73;;
30888;SDS011;51092;50.874;7.024;2023-03-22T03:49:19;16.73;;;10.23;;
30888;SDS011;51092;50.874;7.024;2023-03-22T03:50:22;16.17;;;11.30;;
30888;SDS011;51092;50.874;7.024;2023-03-22T03:51:25;16.17;;;9.73;;
30888;SDS011;51092;50.874;7.024;2023-03-22T03:52:27;12.05;;;9.55;;
30888;SDS011;51092;50.874;7.024;2023-03-22T03:53:30;19.50;;;10.00;;
30888;SDS011;51092;50.874;7.024;2023-03-22T03:54:32;13.27;;;9.77;;
30888;SDS011;51092;50.874;7.024;2023-03-22T03:55:34;15.13;;;10.30;;
30888;SDS011;51092;50.874;7.024;2023-03-22T03:56:37;13.27;;;9.73;;
30888;SDS011;51092;50.874;7.024;2023-03-22T03:57:41;11.13;;;9.27;;
30888;SDS011;51092;50.874;7.024;2023-03-22T03:58:42;16.83;;;11.07;;
30888;SDS011;51092;50.874;7.024;2023-03-22T03:59:45;13.73;;;9.98;;
30888;SDS011;51092;50.874;7.024;2023-03-22T04:00:47;18.02;;;10.43;;
30888;SDS011;51092;50.874;7.024;2023-03-22T04:01:50;16.67;;;10.77;;
30888;SDS011;51092;50.874;7.024;2023-03-22T04:02:52;15.40;;;10.13;;
30888;SDS011;51092;50.874;7.024;2023-03-22T04:03:54;14.63;;;10.20;;
30888;SDS011;51092;50.874;7.024;2023-03-22T04:04:56;14.20;;;9.38;;
30888;SDS011;51092;50.874;7.024;2023-03-22T04:05:58;12.88;;;10.18;;
30888;SDS011;51092;50.874;7.024;2023-03-22T04:07:00;12.35;;;9.60;;
30888;SDS011;51092;50.874;7.024;2023-03-22T04:08:05;13.68;;;9.80;;
30888;SDS011;51092;50.874;7.024;2023-03-22T04:09:06;16.40;;;10.05;;
30888;SDS011;51092;50.874;7.024;2023-03-22T04:10:09;14.20;;;9.88;;
30888;SDS011;51092;50.874;7.024;2023-03-22T04:11:11;17.38;;;11.20;;
30888;SDS011;51092;50.874;7.024;2023-03-22T04:12:13;15.20;;;10.18;;
30888;SDS011;51092;50.874;7.024;2023-03-22T04:13:16;18.92;;;11.65;;
30888;SDS011;51092;50.874;7.024;2023-03-22T04:14:21;20.85;;;11.02;;
30888;SDS011;51092;50.874;7.024;2023-03-22T04:15:23;17.60;;;10.95;;
30888;SDS011;51092;50.874;7.024;2023-03-22T04:16:26;18.10;;;11.38;;
30888;SDS011;51092;50.874;7.024;2023-03-22T04:17:27;15.43;;;10.75;;
30888;SDS011;51092;50.874;7.024;2023-03-22T04:18:31;15.45;;;11.55;;
30888;SDS011;51092;50.874;7.024;2023-03-22T04:19:33;20.70;;;12.18;;
30888;SDS011;51092;50.874;7.024;2023-03-22T04:20:36;16.40;;;11.02;;
30888;SDS011;51092;50.874;7.024;2023-03-22T04:21:38;17.55;;;12.63;;
30888;SDS011;51092;50.874;7.024;2023-03-22T04:22:41;17.90;;;12.68;;
30888;SDS011;51092;50.874;7.024;2023-03-22T04:23:43;20.77;;;13.27;;
30888;SDS011;51092;50.874;7.024;2023-03-22T04:24:46;22.08;;;13.02;;
30888;SDS011;51092;50.874;7.024;2023-03-22T04:25:49;19.15;;;12.93;;
30888;SDS011;51092;50.874;7.024;2023-03-22T04:26:53;21.60;;;13.45;;
30888;SDS011;51092;50.874;7.024;2023-03-22T04:27:55;21.42;;;13.60;;
30888;SDS011;51092;50.874;7.024;2023-03-22T04:28:58;21.65;;;13.13;;
30888;SDS011;51092;50.874;7.024;2023-03-22T04:30:02;21.83;;;12.73;;
30888;SDS011;51092;50.874;7.024;2023-03-22T04:31:05;20.00;;;13.43;;
30888;SDS011;51092;50.874;7.024;2023-03-22T04:32:08;21.83;;;14.07;;
30888;SDS011;51092;50.874;7.024;2023-03-22T04:33:10;19.35;;;13.10;;
30888;SDS011;51092;50.874;7.024;2023-03-22T04:34:11;23.25;;;13.48;;
30888;SDS011;51092;50.874;7.024;2023-03-22T04:35:14;21.55;;;12.52;;
30888;SDS011;51092;50.874;7.024;2023-03-22T04:36:15;27.08;;;14.68;;
30888;SDS011;51092;50.874;7.024;2023-03-22T04:37:17;23.35;;;13.95;;
30888;SDS011;51092;50.874;7.024;2023-03-22T04:38:21;22.67;;;14.15;;
30888;SDS011;51092;50.874;7.024;2023-03-22T04:39:24;22.00;;;13.00;;
30888;SDS011;51092;50.874;7.024;2023-03-22T04:40:27;23.02;;;12.35;;
30888;SDS011;51092;50.874;7.024;2023-03-22T04:41:35;20.17;;;12.60;;
30888;SDS011;51092;50.874;7.024;2023-03-22T04:42:38;20.42;;;13.05;;
30888;SDS011;51092;50.874;7.024;2023-03-22T04:43:40;21.35;;;12.07;;
30888;SDS011;51092;50.874;7.024;2023-03-22T04:44:48;17.75;;;12.20;;
30888;SDS011;51092;50.874;7.024;2023-03-22T04:45:49;24.38;;;14.18;;
30888;SDS011;51092;50.874;7.024;2023-03-22T04:46:54;18.80;;;13.18;;
30888;SDS011;51092;50.874;7.024;2023-03-22T04:47:55;18.92;;;12.38;;
30888;SDS011;51092;50.874;7.024;2023-03-22T04:48:59;21.63;;;13.32;;
30888;SDS011;51092;50.874;7.024;2023-03-22T04:50:01;18.38;;;12.35;;
30888;SDS011;51092;50.874;7.024;2023-03-22T04:51:04;20.08;;;13.77;;
30888;SDS011;51092;50.874;7.024;2023-03-22T04:52:05;17.95;;;11.85;;
30888;SDS011;51092;50.874;7.024;2023-03-22T04:53:08;17.52;;;13.32;;
30888;SDS011;51092;50.874;7.024;2023-03-22T04:54:12;19.65;;;12.85;;
30888;SDS011;51092;50.874;7.024;2023-03-22T04:55:14;16.27;;;12.02;;
30888;SDS011;51092;50.874;7.024;2023-03-22T04:56:16;19.02;;;11.93;;
30888;SDS011;51092;50.874;7.024;2023-03-22T04:57:18;18.30;;;12.48;;
30888;SDS011;51092;50.874;7.024;2023-03-22T04:58:20;15.25;;;12.65;;
30888;SDS011;51092;50.874;7.024;2023-03-22T04:59:22;19.98;;;12.15;;
30888;SDS011;51092;50.874;7.024;2023-03-22T05:00:24;16.50;;;12.63;;
30888;SDS011;51092;50.874;7.024;2023-03-22T05:01:29;17.20;;;10.90;;
30888;SDS011;51092;50.874;7.024;2023-03-22T05:02:30;18.98;;;11.70;;
30888;SDS011;51092;50.874;7.024;2023-03-22T05:03:33;19.63;;;11.73;;
30888;SDS011;51092;50.874;7.024;2023-03-22T05:04:36;12.75;;;10.18;;
30888;SDS011;51092;50.874;7.024;2023-03-22T05:05:38;16.65;;;10.70;;
30888;SDS011;51092;50.874;7.024;2023-03-22T05:06:40;18.10;;;11.02;;
30888;SDS011;51092;50.874;7.024;2023-03-22T05:07:43;15.93;;;11.77;;
30888;SDS011;51092;50.874;7.024;2023-03-22T05:08:44;14.30;;;10.52;;
30888;SDS011;51092;50.874;7.024;2023-03-22T05:09:46;13.93;;;10.40;;
30888;SDS011;51092;50.874;7.024;2023-03-22T05:10:48;14.13;;;11.10;;
30888;SDS011;51092;50.874;7.024;2023-03-22T05:11:51;16.10;;;10.75;;
30888;SDS011;51092;50.874;7.024;2023-03-22T05:12:53;15.82;;;10.13;;
30888;SDS011;51092;50.874;7.024;2023-03-22T05:13:56;17.55;;;9.77;;
30888;SDS011;51092;50.874;7.024;2023-03-22T05:14:57;14.35;;;9.23;;
30888;SDS011;51092;50.874;7.024;2023-03-22T05:16:02;13.35;;;9.93;;
30888;SDS011;51092;50.874;7.024;2023-03-22T05:17:05;16.65;;;11.57;;
30888;SDS011;51092;50.874;7.024;2023-03-22T05:18:07;17.60;;;9.82;;
30888;SDS011;51092;50.874;7.024;2023-03-22T05:19:09;17.65;;;9.52;;
30888;SDS011;51092;50.874;7.024;2023-03-22T05:20:13;13.15;;;9.75;;
30888;SDS011;51092;50.874;7.024;2023-03-22T05:21:17;13.93;;;9.73;;
30888;SDS011;51092;50.874;7.024;2023-03-22T05:22:21;15.88;;;9.52;;
30888;SDS011;51092;50.874;7.024;2023-03-22T05:23:24;14.75;;;11.43;;
30888;SDS011;51092;50.874;7.024;2023-03-22T05:24:27;15.65;;;10.15;;
30888;SDS011;51092;50.874;7.024;2023-03-22T05:25:30;17.55;;;10.40;;
30888;SDS011;51092;50.874;7.024;2023-03-22T05:26:32;15.35;;;9.65;;
30888;SDS011;51092;50.874;7.024;2023-03-22T05:27:37;14.27;;;10.52;;
30888;SDS011;51092;50.874;7.024;2023-03-22T05:28:39;15.20;;;9.77;;
30888;SDS011;51092;50.874;7.024;2023-03-22T05:29:42;15.43;;;10.20;;
30888;SDS011;51092;50.874;7.024;2023-03-22T05:30:44;16.65;;;9.82;;
30888;SDS011;51092;50.874;7.024;2023-03-22T05:31:48;16.05;;;9.93;;
30888;SDS011;51092;50.874;7.024;2023-03-22T05:32:50;12.45;;;9.00;;
30888;SDS011;51092;50.874;7.024;2023-03-22T05:33:52;18.70;;;9.70;;
30888;SDS011;51092;50.874;7.024;2023-03-22T05:34:55;16.85;;;10.07;;
30888;SDS011;51092;50.874;7.024;2023-03-22T05:35:57;12.85;;;9.18;;
30888;SDS011;51092;50.874;7.024;2023-03-22T05:36:59;13.77;;;9.90;;
30888;SDS011;51092;50.874;7.024;2023-03-22T05:38:02;12.88;;;8.38;;
30888;SDS011;51092;50.874;7.024;2023-03-22T05:39:05;13.70;;;8.68;;
30888;SDS011;51092;50.874;7.024;2023-03-22T05:40:07;15.50;;;9.40;;
30888;SDS011;51092;50.874;7.024;2023-03-22T05:41:10;15.98;;;8.95;;
30888;SDS011;51092;50.874;7.024;2023-03-22T05:42:13;11.68;;;8.30;;
30888;SDS011;51092;50.874;7.024;2023-03-22T05:43:15;16.45;;;9.10;;
30888;SDS011;51092;50.874;7.024;2023-03-22T05:44:17;14.82;;;8.70;;
30888;SDS011;51092;50.874;7.024;2023-03-22T05:45:19;12.55;;;8.15;;
30888;SDS011;51092;50.874;7.024;2023-03-22T05:46:22;10.07;;;7.60;;
30888;SDS011;51092;50.874;7.024;2023-03-22T05:47:25;10.82;;;7.90;;
30888;SDS011;51092;50.874;7.024;2023-03-22T05:48:27;15.90;;;8.20;;
30888;SDS011;51092;50.874;7.024;2023-03-22T05:49:29;12.07;;;8.65;;
30888;SDS011;51092;50.874;7.024;2023-03-22T05:50:32;14.48;;;8.65;;
30888;SDS011;51092;50.874;7.024;2023-03-22T05:51:33;11.02;;;7.97;;
30888;SDS011;51092;50.874;7.024;2023-03-22T05:52:41;11.50;;;8.48;;
30888;SDS011;51092;50.874;7.024;2023-03-22T05:53:44;14.32;;;8.93;;
30888;SDS011;51092;50.874;7.024;2023-03-22T05:54:47;12.55;;;7.85;;
30888;SDS011;51092;50.874;7.024;2023-03-22T05:55:49;14.68;;;8.98;;
30888;SDS011;51092;50.874;7.024;2023-03-22T05:56:52;14.85;;;7.72;;
30888;SDS011;51092;50.874;7.024;2023-03-22T05:57:54;9.63;;;6.95;;
30888;SDS011;51092;50.874;7.024;2023-03-22T05:58:56;11.15;;;7.32;;
30888;SDS011;51092;50.874;7.024;2023-03-22T05:59:59;12.00;;;7.68;;
30888;SDS011;51092;50.874;7.024;2023-03-22T06:01:05;12.38;;;7.53;;
30888;SDS011;51092;50.874;7.024;2023-03-22T06:02:08;12.85;;;7.43;;
30888;SDS011;51092;50.874;7.024;2023-03-22T06:03:12;13.73;;;8.00;;
30888;SDS011;51092;50.874;7.024;2023-03-22T06:04:13;9.77;;;7.45;;
30888;SDS011;51092;50.874;7.024;2023-03-22T06:05:16;11.13;;;7.13;;
30888;SDS011;51092;50.874;7.024;2023-03-22T06:06:18;18.17;;;7.45;;
30888;SDS011;51092;50.874;7.024;2023-03-22T06:07:20;11.73;;;6.68;;
30888;SDS011;51092;50.874;7.024;2023-03-22T06:08:22;15.48;;;7.55;;
30888;SDS011;51092;50.874;7.024;2023-03-22T06:09:24;16.67;;;7.93;;
30888;SDS011;51092;50.874;7.024;2023-03-22T06:10:26;10.32;;;7.30;;
30888;SDS011;51092;50.874;7.024;2023-03-22T06:11:29;8.30;;;6.65;;
30888;SDS011;51092;50.874;7.024;2023-03-22T06:12:33;11.25;;;7.00;;
30888;SDS011;51092;50.874;7.024;2023-03-22T06:13:36;13.68;;;7.18;;
30888;SDS011;51092;50.874;7.024;2023-03-22T06:14:38;12.70;;;7.50;;
30888;SDS011;51092;50.874;7.024;2023-03-22T06:15:40;13.95;;;7.60;;
30888;SDS011;51092;50.874;7.024;2023-03-22T06:16:42;10.02;;;7.05;;
30888;SDS011;51092;50.874;7.024;2023-03-22T06:17:44;11.82;;;7.13;;
30888;SDS011;51092;50.874;7.024;2023-03-22T06:18:48;13.18;;;7.43;;
30888;SDS011;51092;50.874;7.024;2023-03-22T06:19:50;10.85;;;7.85;;
30888;SDS011;51092;50.874;7.024;2023-03-22T06:20:52;13.63;;;7.03;;
30888;SDS011;51092;50.874;7.024;2023-03-22T06:21:55;16.48;;;7.72;;
30888;SDS011;51092;50.874;7.024;2023-03-22T06:22:57;11.02;;;7.00;;
30888;SDS011;51092;50.874;7.024;2023-03-22T06:24:00;13.15;;;7.13;;
30888;SDS011;51092;50.874;7.024;2023-03-22T06:25:01;14.23;;;7.43;;
30888;SDS011;51092;50.874;7.024;2023-03-22T06:26:05;10.15;;;7.13;;
30888;SDS011;51092;50.874;7.024;2023-03-22T06:27:06;13.32;;;7.55;;
30888;SDS011;51092;50.874;7.024;2023-03-22T06:28:09;11.27;;;6.93;;
30888;SDS011;51092;50.874;7.024;2023-03-22T06:29:11;11.75;;;7.38;;
30888;SDS011;51092;50.874;7.024;2023-03-22T06:30:14;12.57;;;7.10;;